sensor_id;sensor_type;location;lat;lon;timestamp;P1;durP1;ratioP1;P2;durP2;ratioP2
5085;SDS011;4715;51.660;7.082;2024-01-15T00:02:17;38.07;;;18.57;;
5085;SDS011;4715;51.660;7.082;2024-01-15T00:04:39;42.53;;;20.60;;
5085;SDS011;4715;51.660;7.082;2024-01-15T00:07:06;43.50;;;20.00;;
5085;SDS011;4715;51.660;7.082;2024-01-15T00:09:27;43.67;;;21.60;;
5085;SDS011;4715;51.660;7.082;2024-01-15T00:11:52;32.30;;;17.30;;
5085;SDS011;4715;51.660;7.082;2024-01-15T00:14:14;47.20;;;21.93;;
5085;SDS011;4715;51.660;7.082;2024-01-15T00:16:40;46.50;;;20.07;;
5085;SDS011;4715;51.660;7.082;2024-01-15T00:19:01;40.00;;;20.00;;
5085;SDS011;4715;51.660;7.082;2024-01-15T00:21:23;40.00;;;19.53;;
5085;SDS011;4715;51.660;7.082;2024-01-15T00:23:46;38.13;;;19.30;;
5085;SDS011;4715;51.660;7.082;2024-01-15T00:26:08;40.73;;;21.53;;
5085;SDS011;4715;51.660;7.082;2024-01-15T00:28:30;34.40;;;17.63;;
5085;SDS011;4715;51.660;7.082;2024-01-15T00:30:52;43.30;;;19.90;;
5085;SDS011;4715;51.660;7.082;2024-01-15T00:33:14;41.30;;;20.13;;
5085;SDS011;4715;51.660;7.082;2024-01-15T00:35:36;43.03;;;20.33;;
5085;SDS011;4715;51.660;7.082;2024-01-15T00:37:58;43.13;;;19.90;;
5085;SDS011;4715;51.660;7.082;2024-01-15T00:40:22;45.93;;;20.83;;
5085;SDS011;4715;51.660;7.082;2024-01-15T00:42:45;35.50;;;16.90;;
5085;SDS011;4715;51.660;7.082;2024-01-15T00:45:08;36.00;;;18.33;;
5085;SDS011;4715;51.660;7.082;2024-01-15T00:47:30;37.60;;;18.00;;
5085;SDS011;4715;51.660;7.082;2024-01-15T00:49:53;44.40;;;21.23;;
5085;SDS011;4715;51.660;7.082;2024-01-15T00:52:15;33.83;;;17.20;;
5085;SDS011;4715;51.660;7.082;2024-01-15T00:54:37;39.77;;;18.90;;
5085;SDS011;4715;51.660;7.082;2024-01-15T00:57:03;43.57;;;20.60;;
5085;SDS011;4715;51.660;7.082;2024-01-15T00:59:25;36.20;;;19.20;;
5085;SDS011;4715;51.660;7.082;2024-01-15T01:01:49;35.83;;;16.80;;
5085;SDS011;4715;51.660;7.082;2024-01-15T01:04:13;37.17;;;18.93;;
5085;SDS011;4715;51.660;7.082;2024-01-15T01:06:37;42.40;;;20.60;;
5085;SDS011;4715;51.660;7.082;2024-01-15T01:08:59;37.90;;;19.77;;
5085;SDS011;4715;51.660;7.082;2024-01-15T01:11:21;36.80;;;18.17;;
5085;SDS011;4715;51.660;7.082;2024-01-15T01:13:47;44.70;;;20.10;;
5085;SDS011;4715;51.660;7.082;2024-01-15T01:16:09;33.77;;;18.27;;
5085;SDS011;4715;51.660;7.082;2024-01-15T01:18:31;35.67;;;17.20;;
5085;SDS011;4715;51.660;7.082;2024-01-15T01:20:54;38.63;;;18.13;;
5085;SDS011;4715;51.660;7.082;2024-01-15T01:23:16;36.20;;;17.77;;
5085;SDS011;4715;51.660;7.082;2024-01-15T01:25:38;41.07;;;17.83;;
5085;SDS011;4715;51.660;7.082;2024-01-15T01:28:00;32.40;;;16.43;;
5085;SDS011;4715;51.660;7.082;2024-01-15T01:30:24;33.40;;;17.17;;
5085;SDS011;4715;51.660;7.082;2024-01-15T01:32:46;43.30;;;20.33;;
5085;SDS011;4715;51.660;7.082;2024-01-15T01:35:07;37.17;;;17.77;;
5085;SDS011;4715;51.660;7.082;2024-01-15T01:37:29;33.87;;;14.97;;
5085;SDS011;4715;51.660;7.082;2024-01-15T01:39:52;34.57;;;17.80;;
5085;SDS011;4715;51.660;7.082;2024-01-15T01:42:13;26.80;;;16.23;;
5085;SDS011;4715;51.660;7.082;2024-01-15T01:44:37;22.53;;;12.70;;
5085;SDS011;4715;51.660;7.082;2024-01-15T01:47:00;26.20;;;13.40;;
5085;SDS011;4715;51.660;7.082;2024-01-15T01:49:23;23.30;;;12.53;;
5085;SDS011;4715;51.660;7.082;2024-01-15T01:51:46;26.10;;;13.70;;
5085;SDS011;4715;51.660;7.082;2024-01-15T01:54:08;24.50;;;13.03;;
5085;SDS011;4715;51.660;7.082;2024-01-15T01:56:32;26.03;;;14.07;;
5085;SDS011;4715;51.660;7.082;2024-01-15T01:58:57;27.60;;;13.03;;
5085;SDS011;4715;51.660;7.082;2024-01-15T02:01:19;25.03;;;12.40;;
5085;SDS011;4715;51.660;7.082;2024-01-15T02:03:48;22.80;;;13.13;;
5085;SDS011;4715;51.660;7.082;2024-01-15T02:06:11;26.50;;;14.30;;
5085;SDS011;4715;51.660;7.082;2024-01-15T02:08:36;29.77;;;13.90;;
5085;SDS011;4715;51.660;7.082;2024-01-15T02:11:00;21.77;;;13.77;;
5085;SDS011;4715;51.660;7.082;2024-01-15T02:13:26;22.40;;;13.00;;
5085;SDS011;4715;51.660;7.082;2024-01-15T02:15:47;20.17;;;11.93;;
5085;SDS011;4715;51.660;7.082;2024-01-15T02:18:12;26.40;;;13.90;;
5085;SDS011;4715;51.660;7.082;2024-01-15T02:20:36;23.90;;;13.07;;
5085;SDS011;4715;51.660;7.082;2024-01-15T02:23:11;22.10;;;13.57;;
5085;SDS011;4715;51.660;7.082;2024-01-15T02:25:37;23.00;;;13.03;;
5085;SDS011;4715;51.660;7.082;2024-01-15T02:28:00;21.70;;;11.90;;
5085;SDS011;4715;51.660;7.082;2024-01-15T02:30:23;27.00;;;12.40;;
5085;SDS011;4715;51.660;7.082;2024-01-15T02:32:46;20.10;;;10.83;;
5085;SDS011;4715;51.660;7.082;2024-01-15T02:35:09;20.60;;;11.50;;
5085;SDS011;4715;51.660;7.082;2024-01-15T02:37:31;22.47;;;13.40;;
5085;SDS011;4715;51.660;7.082;2024-01-15T02:39:54;21.10;;;13.67;;
5085;SDS011;4715;51.660;7.082;2024-01-15T02:42:16;22.23;;;12.30;;
5085;SDS011;4715;51.660;7.082;2024-01-15T02:44:38;24.03;;;12.50;;
5085;SDS011;4715;51.660;7.082;2024-01-15T02:47:01;25.07;;;13.20;;
5085;SDS011;4715;51.660;7.082;2024-01-15T02:49:26;21.67;;;12.50;;
5085;SDS011;4715;51.660;7.082;2024-01-15T02:51:50;27.60;;;12.20;;
5085;SDS011;4715;51.660;7.082;2024-01-15T02:54:11;19.67;;;12.57;;
5085;SDS011;4715;51.660;7.082;2024-01-15T02:56:37;21.60;;;12.43;;
5085;SDS011;4715;51.660;7.082;2024-01-15T02:58:59;17.40;;;10.50;;
5085;SDS011;4715;51.660;7.082;2024-01-15T03:01:21;25.37;;;11.53;;
5085;SDS011;4715;51.660;7.082;2024-01-15T03:03:46;19.30;;;12.30;;
5085;SDS011;4715;51.660;7.082;2024-01-15T03:06:09;18.97;;;10.90;;
5085;SDS011;4715;51.660;7.082;2024-01-15T03:08:31;19.73;;;10.73;;
5085;SDS011;4715;51.660;7.082;2024-01-15T03:10:55;16.80;;;10.63;;
5085;SDS011;4715;51.660;7.082;2024-01-15T03:13:18;16.87;;;9.40;;
5085;SDS011;4715;51.660;7.082;2024-01-15T03:15:40;16.50;;;11.27;;
5085;SDS011;4715;51.660;7.082;2024-01-15T03:18:02;16.70;;;10.93;;
5085;SDS011;4715;51.660;7.082;2024-01-15T03:20:26;28.77;;;12.77;;
5085;SDS011;4715;51.660;7.082;2024-01-15T03:22:48;17.20;;;11.20;;
5085;SDS011;4715;51.660;7.082;2024-01-15T03:25:10;17.97;;;12.17;;
5085;SDS011;4715;51.660;7.082;2024-01-15T03:27:32;31.47;;;11.27;;
5085;SDS011;4715;51.660;7.082;2024-01-15T03:29:58;21.67;;;12.50;;
5085;SDS011;4715;51.660;7.082;2024-01-15T03:32:22;21.43;;;12.93;;
5085;SDS011;4715;51.660;7.082;2024-01-15T03:34:46;25.57;;;12.17;;
5085;SDS011;4715;51.660;7.082;2024-01-15T03:37:09;19.03;;;12.90;;
5085;SDS011;4715;51.660;7.082;2024-01-15T03:39:32;24.63;;;12.60;;
5085;SDS011;4715;51.660;7.082;2024-01-15T03:41:56;22.03;;;12.70;;
5085;SDS011;4715;51.660;7.082;2024-01-15T03:44:18;27.40;;;12.20;;
5085;SDS011;4715;51.660;7.082;2024-01-15T03:46:42;20.80;;;12.83;;
5085;SDS011;4715;51.660;7.082;2024-01-15T03:49:05;22.03;;;12.10;;
5085;SDS011;4715;51.660;7.082;2024-01-15T03:51:28;30.20;;;12.87;;
5085;SDS011;4715;51.660;7.082;2024-01-15T03:53:51;20.90;;;12.80;;
5085;SDS011;4715;51.660;7.082;2024-01-15T03:56:13;19.77;;;12.00;;
5085;SDS011;4715;51.660;7.082;2024-01-15T03:58:35;24.20;;;12.00;;
5085;SDS011;4715;51.660;7.082;2024-01-15T04:01:01;20.17;;;11.60;;
5085;SDS011;4715;51.660;7.082;2024-01-15T04:03:30;24.07;;;11.40;;
5085;SDS011;4715;51.660;7.082;2024-01-15T04:05:52;21.63;;;12.83;;
5085;SDS011;4715;51.660;7.082;2024-01-15T04:08:15;16.30;;;11.17;;
5085;SDS011;4715;51.660;7.082;2024-01-15T04:10:38;16.10;;;9.57;;
5085;SDS011;4715;51.660;7.082;2024-01-15T04:13:00;24.20;;;10.53;;
5085;SDS011;4715;51.660;7.082;2024-01-15T04:15:26;17.43;;;9.70;;
5085;SDS011;4715;51.660;7.082;2024-01-15T04:17:48;15.23;;;9.60;;
5085;SDS011;4715;51.660;7.082;2024-01-15T04:20:12;16.20;;;10.23;;
5085;SDS011;4715;51.660;7.082;2024-01-15T04:22:35;16.97;;;9.93;;
5085;SDS011;4715;51.660;7.082;2024-01-15T04:24:59;15.70;;;9.80;;
5085;SDS011;4715;51.660;7.082;2024-01-15T04:27:23;12.93;;;8.23;;
5085;SDS011;4715;51.660;7.082;2024-01-15T04:29:48;13.20;;;8.67;;
5085;SDS011;4715;51.660;7.082;2024-01-15T04:32:09;17.83;;;8.40;;
5085;SDS011;4715;51.660;7.082;2024-01-15T04:34:33;18.07;;;9.20;;
5085;SDS011;4715;51.660;7.082;2024-01-15T04:36:56;15.67;;;7.20;;
5085;SDS011;4715;51.660;7.082;2024-01-15T04:39:22;13.93;;;8.03;;
5085;SDS011;4715;51.660;7.082;2024-01-15T04:41:43;9.33;;;7.50;;
5085;SDS011;4715;51.660;7.082;2024-01-15T04:44:08;15.13;;;7.47;;
5085;SDS011;4715;51.660;7.082;2024-01-15T04:46:32;9.43;;;7.90;;
5085;SDS011;4715;51.660;7.082;2024-01-15T04:48:54;12.63;;;8.57;;
5085;SDS011;4715;51.660;7.082;2024-01-15T04:51:16;10.20;;;7.17;;
5085;SDS011;4715;51.660;7.082;2024-01-15T04:53:44;13.97;;;7.80;;
5085;SDS011;4715;51.660;7.082;2024-01-15T04:56:06;21.73;;;7.73;;
5085;SDS011;4715;51.660;7.082;2024-01-15T04:58:29;9.93;;;7.50;;
5085;SDS011;4715;51.660;7.082;2024-01-15T05:00:54;11.47;;;7.40;;
5085;SDS011;4715;51.660;7.082;2024-01-15T05:03:18;13.30;;;7.70;;
5085;SDS011;4715;51.660;7.082;2024-01-15T05:05:43;17.33;;;7.80;;
5085;SDS011;4715;51.660;7.082;2024-01-15T05:08:06;13.20;;;8.13;;
5085;SDS011;4715;51.660;7.082;2024-01-15T05:10:29;16.03;;;8.00;;
5085;SDS011;4715;51.660;7.082;2024-01-15T05:12:51;12.47;;;8.93;;
5085;SDS011;4715;51.660;7.082;2024-01-15T05:15:13;14.17;;;9.33;;
5085;SDS011;4715;51.660;7.082;2024-01-15T05:17:36;12.47;;;8.83;;
5085;SDS011;4715;51.660;7.082;2024-01-15T05:20:03;19.57;;;10.03;;
5085;SDS011;4715;51.660;7.082;2024-01-15T05:22:29;13.57;;;7.67;;
5085;SDS011;4715;51.660;7.082;2024-01-15T05:24:51;21.67;;;8.97;;
5085;SDS011;4715;51.660;7.082;2024-01-15T05:27:18;16.37;;;7.87;;
5085;SDS011;4715;51.660;7.082;2024-01-15T05:29:42;12.40;;;8.00;;
5085;SDS011;4715;51.660;7.082;2024-01-15T05:32:06;21.07;;;10.10;;
5085;SDS011;4715;51.660;7.082;2024-01-15T05:34:28;16.10;;;8.20;;
5085;SDS011;4715;51.660;7.082;2024-01-15T05:36:50;25.37;;;9.70;;
5085;SDS011;4715;51.660;7.082;2024-01-15T05:39:14;15.90;;;9.20;;
5085;SDS011;4715;51.660;7.082;2024-01-15T05:41:39;14.63;;;8.40;;
5085;SDS011;4715;51.660;7.082;2024-01-15T05:44:05;15.80;;;8.50;;
5085;SDS011;4715;51.660;7.082;2024-01-15T05:46:28;13.73;;;7.97;;
5085;SDS011;4715;51.660;7.082;2024-01-15T05:48:50;10.30;;;8.00;;
5085;SDS011;4715;51.660;7.082;2024-01-15T05:51:12;19.07;;;8.70;;
5085;SDS011;4715;51.660;7.082;2024-01-15T05:53:35;20.30;;;8.07;;
5085;SDS011;4715;51.660;7.082;2024-01-15T05:56:03;12.33;;;7.37;;
5085;SDS011;4715;51.660;7.082;2024-01-15T05:58:28;13.03;;;7.73;;
5085;SDS011;4715;51.660;7.082;2024-01-15T06:00:52;10.23;;;6.63;;
5085;SDS011;4715;51.660;7.082;2024-01-15T06:03:13;15.10;;;7.60;;
5085;SDS011;4715;51.660;7.082;2024-01-15T06:05:36;12.33;;;7.60;;
5085;SDS011;4715;51.660;7.082;2024-01-15T06:08:01;8.13;;;6.67;;
5085;SDS011;4715;51.660;7.082;2024-01-15T06:10:23;13.70;;;7.67;;
5085;SDS011;4715;51.660;7.082;2024-01-15T06:12:45;12.77;;;7.30;;
5085;SDS011;4715;51.660;7.082;2024-01-15T06:15:06;10.97;;;7.63;;
5085;SDS011;4715;51.660;7.082;2024-01-15T06:17:30;11.97;;;6.27;;
5085;SDS011;4715;51.660;7.082;2024-01-15T06:19:53;12.27;;;7.73;;
5085;SDS011;4715;51.660;7.082;2024-01-15T06:22:16;19.43;;;6.50;;
5085;SDS011;4715;51.660;7.082;2024-01-15T06:24:39;8.80;;;6.07;;
5085;SDS011;4715;51.660;7.082;2024-01-15T06:27:04;13.00;;;6.73;;
5085;SDS011;4715;51.660;7.082;2024-01-15T06:29:26;17.70;;;6.33;;
5085;SDS011;4715;51.660;7.082;2024-01-15T06:31:50;8.23;;;7.00;;
5085;SDS011;4715;51.660;7.082;2024-01-15T06:34:52;17.27;;;7.53;;
5085;SDS011;4715;51.660;7.082;2024-01-15T06:37:14;13.53;;;8.40;;
5085;SDS011;4715;51.660;7.082;2024-01-15T06:39:35;19.03;;;9.03;;
5085;SDS011;4715;51.660;7.082;2024-01-15T06:41:57;11.30;;;7.30;;
5085;SDS011;4715;51.660;7.082;2024-01-15T06:44:22;14.80;;;8.67;;
5085;SDS011;4715;51.660;7.082;2024-01-15T06:46:44;13.80;;;7.50;;
5085;SDS011;4715;51.660;7.082;2024-01-15T06:49:06;14.50;;;7.40;;
5085;SDS011;4715;51.660;7.082;2024-01-15T06:51:30;11.50;;;7.17;;
5085;SDS011;4715;51.660;7.082;2024-01-15T06:53:52;8.43;;;6.47;;
5085;SDS011;4715;51.660;7.082;2024-01-15T06:56:17;15.57;;;7.60;;
5085;SDS011;4715;51.660;7.082;2024-01-15T06:58:39;13.37;;;7.60;;
5085;SDS011;4715;51.660;7.082;2024-01-15T07:01:02;15.53;;;7.13;;
5085;SDS011;4715;51.660;7.082;2024-01-15T07:03:28;13.10;;;7.20;;
5085;SDS011;4715;51.660;7.082;2024-01-15T07:05:50;10.10;;;7.27;;
5085;SDS011;4715;51.660;7.082;2024-01-15T07:08:14;7.97;;;6.47;;
5085;SDS011;4715;51.660;7.082;2024-01-15T07:10:36;8.23;;;5.53;;
5085;SDS011;4715;51.660;7.082;2024-01-15T07:12:58;6.77;;;5.43;;
5085;SDS011;4715;51.660;7.082;2024-01-15T07:15:20;8.07;;;6.67;;
5085;SDS011;4715;51.660;7.082;2024-01-15T07:17:42;11.70;;;6.73;;
5085;SDS011;4715;51.660;7.082;2024-01-15T07:20:04;19.47;;;7.33;;
5085;SDS011;4715;51.660;7.082;2024-01-15T07:22:29;11.73;;;7.03;;
5085;SDS011;4715;51.660;7.082;2024-01-15T07:24:52;8.87;;;6.23;;
5085;SDS011;4715;51.660;7.082;2024-01-15T07:27:14;10.23;;;6.60;;
5085;SDS011;4715;51.660;7.082;2024-01-15T07:29:37;11.53;;;6.67;;
5085;SDS011;4715;51.660;7.082;2024-01-15T07:31:59;8.23;;;5.90;;
5085;SDS011;4715;51.660;7.082;2024-01-15T07:34:21;11.73;;;4.60;;
5085;SDS011;4715;51.660;7.082;2024-01-15T07:36:43;6.20;;;4.80;;
5085;SDS011;4715;51.660;7.082;2024-01-15T07:39:06;14.50;;;6.40;;
5085;SDS011;4715;51.660;7.082;2024-01-15T07:41:29;8.90;;;5.57;;
5085;SDS011;4715;51.660;7.082;2024-01-15T07:43:51;8.20;;;4.30;;
5085;SDS011;4715;51.660;7.082;2024-01-15T07:46:13;11.93;;;5.30;;
5085;SDS011;4715;51.660;7.082;2024-01-15T07:48:36;4.67;;;3.60;;
5085;SDS011;4715;51.660;7.082;2024-01-15T07:50:57;4.97;;;4.50;;
5085;SDS011;4715;51.660;7.082;2024-01-15T07:53:23;8.83;;;5.50;;
5085;SDS011;4715;51.660;7.082;2024-01-15T07:55:52;7.90;;;6.40;;
5085;SDS011;4715;51.660;7.082;2024-01-15T07:58:15;5.90;;;5.40;;
5085;SDS011;4715;51.660;7.082;2024-01-15T08:00:38;7.47;;;5.60;;
5085;SDS011;4715;51.660;7.082;2024-01-15T08:02:59;13.97;;;5.70;;
5085;SDS011;4715;51.660;7.082;2024-01-15T08:05:27;6.87;;;5.57;;
5085;SDS011;4715;51.660;7.082;2024-01-15T08:07:50;7.83;;;5.53;;
5085;SDS011;4715;51.660;7.082;2024-01-15T08:10:11;6.70;;;5.60;;
5085;SDS011;4715;51.660;7.082;2024-01-15T08:12:34;7.33;;;6.00;;
5085;SDS011;4715;51.660;7.082;2024-01-15T08:14:57;4.40;;;3.97;;
5085;SDS011;4715;51.660;7.082;2024-01-15T08:17:19;10.47;;;5.00;;
5085;SDS011;4715;51.660;7.082;2024-01-15T08:19:41;6.63;;;4.90;;
5085;SDS011;4715;51.660;7.082;2024-01-15T08:22:03;6.10;;;3.63;;
5085;SDS011;4715;51.660;7.082;2024-01-15T08:24:25;6.73;;;4.20;;
5085;SDS011;4715;51.660;7.082;2024-01-15T08:26:50;3.90;;;2.63;;
5085;SDS011;4715;51.660;7.082;2024-01-15T08:29:13;3.27;;;3.07;;
5085;SDS011;4715;51.660;7.082;2024-01-15T08:31:40;4.33;;;3.77;;
5085;SDS011;4715;51.660;7.082;2024-01-15T08:34:02;3.60;;;3.30;;
5085;SDS011;4715;51.660;7.082;2024-01-15T08:36:25;4.60;;;3.27;;
5085;SDS011;4715;51.660;7.082;2024-01-15T08:38:47;3.60;;;2.97;;
5085;SDS011;4715;51.660;7.082;2024-01-15T08:41:09;4.00;;;3.70;;
5085;SDS011;4715;51.660;7.082;2024-01-15T08:43:31;3.73;;;3.43;;
5085;SDS011;4715;51.660;7.082;2024-01-15T08:45:52;7.90;;;4.10;;
5085;SDS011;4715;51.660;7.082;2024-01-15T08:48:16;4.40;;;4.00;;
5085;SDS011;4715;51.660;7.082;2024-01-15T08:50:41;4.67;;;4.27;;
5085;SDS011;4715;51.660;7.082;2024-01-15T08:53:05;6.97;;;4.00;;
5085;SDS011;4715;51.660;7.082;2024-01-15T08:55:27;4.50;;;4.10;;
5085;SDS011;4715;51.660;7.082;2024-01-15T08:57:49;3.63;;;3.33;;
5085;SDS011;4715;51.660;7.082;2024-01-15T09:00:12;4.27;;;3.83;;
5085;SDS011;4715;51.660;7.082;2024-01-15T09:02:34;4.63;;;3.43;;
5085;SDS011;4715;51.660;7.082;2024-01-15T09:04:58;3.20;;;3.00;;
5085;SDS011;4715;51.660;7.082;2024-01-15T09:07:20;3.87;;;3.57;;
5085;SDS011;4715;51.660;7.082;2024-01-15T09:09:44;4.50;;;3.73;;
5085;SDS011;4715;51.660;7.082;2024-01-15T09:12:09;3.93;;;3.57;;
5085;SDS011;4715;51.660;7.082;2024-01-15T09:14:30;3.83;;;3.50;;
5085;SDS011;4715;51.660;7.082;2024-01-15T09:16:54;5.13;;;3.83;;
5085;SDS011;4715;51.660;7.082;2024-01-15T09:19:16;3.53;;;3.23;;
5085;SDS011;4715;51.660;7.082;2024-01-15T09:21:39;4.03;;;3.73;;
5085;SDS011;4715;51.660;7.082;2024-01-15T09:24:02;3.80;;;3.33;;
5085;SDS011;4715;51.660;7.082;2024-01-15T09:26:24;6.23;;;4.60;;
5085;SDS011;4715;51.660;7.082;2024-01-15T09:28:46;3.60;;;3.30;;
5085;SDS011;4715;51.660;7.082;2024-01-15T09:31:08;4.00;;;3.70;;
5085;SDS011;4715;51.660;7.082;2024-01-15T09:33:30;4.60;;;4.20;;
5085;SDS011;4715;51.660;7.082;2024-01-15T09:35:54;4.17;;;3.87;;
5085;SDS011;4715;51.660;7.082;2024-01-15T09:38:17;4.33;;;3.93;;
5085;SDS011;4715;51.660;7.082;2024-01-15T09:40:39;4.77;;;4.33;;
5085;SDS011;4715;51.660;7.082;2024-01-15T09:43:06;4.80;;;4.40;;
5085;SDS011;4715;51.660;7.082;2024-01-15T09:45:28;4.87;;;4.17;;
5085;SDS011;4715;51.660;7.082;2024-01-15T09:47:51;4.77;;;4.30;;
5085;SDS011;4715;51.660;7.082;2024-01-15T09:50:14;5.13;;;3.87;;
5085;SDS011;4715;51.660;7.082;2024-01-15T09:52:36;7.10;;;4.47;;
5085;SDS011;4715;51.660;7.082;2024-01-15T09:54:59;6.00;;;4.70;;
5085;SDS011;4715;51.660;7.082;2024-01-15T09:57:25;4.93;;;4.43;;
5085;SDS011;4715;51.660;7.082;2024-01-15T09:59:50;5.30;;;4.80;;
5085;SDS011;4715;51.660;7.082;2024-01-15T10:02:15;5.33;;;4.43;;
5085;SDS011;4715;51.660;7.082;2024-01-15T10:04:38;4.70;;;4.30;;
5085;SDS011;4715;51.660;7.082;2024-01-15T10:07:03;4.47;;;4.07;;
5085;SDS011;4715;51.660;7.082;2024-01-15T10:09:28;4.70;;;4.30;;
5085;SDS011;4715;51.660;7.082;2024-01-15T10:11:55;6.40;;;3.60;;
5085;SDS011;4715;51.660;7.082;2024-01-15T10:14:17;4.07;;;3.77;;
5085;SDS011;4715;51.660;7.082;2024-01-15T10:16:39;5.03;;;4.00;;
5085;SDS011;4715;51.660;7.082;2024-01-15T10:19:01;5.63;;;4.43;;
5085;SDS011;4715;51.660;7.082;2024-01-15T10:21:24;5.80;;;5.20;;
5085;SDS011;4715;51.660;7.082;2024-01-15T10:23:46;6.37;;;5.20;;
5085;SDS011;4715;51.660;7.082;2024-01-15T10:26:08;6.67;;;4.70;;
5085;SDS011;4715;51.660;7.082;2024-01-15T10:28:33;6.43;;;4.60;;
5085;SDS011;4715;51.660;7.082;2024-01-15T10:30:55;7.20;;;5.10;;
5085;SDS011;4715;51.660;7.082;2024-01-15T10:33:21;7.90;;;5.30;;
5085;SDS011;4715;51.660;7.082;2024-01-15T10:35:45;6.33;;;4.97;;
5085;SDS011;4715;51.660;7.082;2024-01-15T10:38:07;6.40;;;5.70;;
5085;SDS011;4715;51.660;7.082;2024-01-15T10:40:29;6.33;;;4.97;;
5085;SDS011;4715;51.660;7.082;2024-01-15T10:42:51;5.77;;;5.17;;
5085;SDS011;4715;51.660;7.082;2024-01-15T10:45:14;7.17;;;4.90;;
5085;SDS011;4715;51.660;7.082;2024-01-15T10:47:37;7.40;;;5.60;;
5085;SDS011;4715;51.660;7.082;2024-01-15T10:49:59;8.17;;;6.20;;
5085;SDS011;4715;51.660;7.082;2024-01-15T10:52:27;7.10;;;5.73;;
5085;SDS011;4715;51.660;7.082;2024-01-15T10:54:49;6.27;;;5.60;;
5085;SDS011;4715;51.660;7.082;2024-01-15T10:57:11;9.30;;;5.80;;
5085;SDS011;4715;51.660;7.082;2024-01-15T10:59:36;7.30;;;5.57;;
5085;SDS011;4715;51.660;7.082;2024-01-15T11:02:00;11.53;;;6.77;;
5085;SDS011;4715;51.660;7.082;2024-01-15T11:04:22;10.13;;;6.20;;
5085;SDS011;4715;51.660;7.082;2024-01-15T11:06:49;13.20;;;7.10;;
5085;SDS011;4715;51.660;7.082;2024-01-15T11:09:13;8.13;;;5.63;;
5085;SDS011;4715;51.660;7.082;2024-01-15T11:11:40;7.90;;;6.40;;
5085;SDS011;4715;51.660;7.082;2024-01-15T11:14:03;13.97;;;8.53;;
5085;SDS011;4715;51.660;7.082;2024-01-15T11:16:29;8.60;;;6.70;;
5085;SDS011;4715;51.660;7.082;2024-01-15T11:19:19;8.60;;;5.30;;
5085;SDS011;4715;51.660;7.082;2024-01-15T11:21:41;6.10;;;5.37;;
5085;SDS011;4715;51.660;7.082;2024-01-15T11:24:04;10.00;;;6.63;;
5085;SDS011;4715;51.660;7.082;2024-01-15T11:26:32;6.40;;;5.80;;
5085;SDS011;4715;51.660;7.082;2024-01-15T11:28:57;9.53;;;5.20;;
5085;SDS011;4715;51.660;7.082;2024-01-15T11:31:20;7.10;;;4.80;;
5085;SDS011;4715;51.660;7.082;2024-01-15T11:33:47;5.47;;;4.87;;
5085;SDS011;4715;51.660;7.082;2024-01-15T11:36:11;5.47;;;4.97;;
5085;SDS011;4715;51.660;7.082;2024-01-15T11:38:35;5.50;;;5.20;;
5085;SDS011;4715;51.660;7.082;2024-01-15T11:40:57;4.10;;;3.80;;
5085;SDS011;4715;51.660;7.082;2024-01-15T11:43:23;6.13;;;3.83;;
5085;SDS011;4715;51.660;7.082;2024-01-15T11:45:45;19.40;;;5.33;;
5085;SDS011;4715;51.660;7.082;2024-01-15T11:48:10;6.70;;;3.30;;
5085;SDS011;4715;51.660;7.082;2024-01-15T11:50:34;6.20;;;4.10;;
5085;SDS011;4715;51.660;7.082;2024-01-15T11:52:59;7.27;;;5.00;;
5085;SDS011;4715;51.660;7.082;2024-01-15T11:55:26;7.70;;;4.43;;
5085;SDS011;4715;51.660;7.082;2024-01-15T11:57:52;6.50;;;4.87;;
5085;SDS011;4715;51.660;7.082;2024-01-15T12:00:15;8.70;;;4.90;;
5085;SDS011;4715;51.660;7.082;2024-01-15T12:02:37;7.13;;;5.03;;
5085;SDS011;4715;51.660;7.082;2024-01-15T12:05:00;5.70;;;4.70;;
5085;SDS011;4715;51.660;7.082;2024-01-15T12:07:23;5.70;;;5.20;;
5085;SDS011;4715;51.660;7.082;2024-01-15T12:09:46;4.00;;;3.30;;
5085;SDS011;4715;51.660;7.082;2024-01-15T12:12:10;4.93;;;4.00;;
5085;SDS011;4715;51.660;7.082;2024-01-15T12:14:39;4.57;;;3.93;;
5085;SDS011;4715;51.660;7.082;2024-01-15T12:17:01;6.90;;;5.03;;
5085;SDS011;4715;51.660;7.082;2024-01-15T12:19:23;10.93;;;4.73;;
5085;SDS011;4715;51.660;7.082;2024-01-15T12:21:45;5.47;;;4.97;;
5085;SDS011;4715;51.660;7.082;2024-01-15T12:24:09;5.17;;;4.63;;
5085;SDS011;4715;51.660;7.082;2024-01-15T12:26:32;4.93;;;4.10;;
5085;SDS011;4715;51.660;7.082;2024-01-15T12:28:55;6.33;;;4.70;;
5085;SDS011;4715;51.660;7.082;2024-01-15T12:31:18;4.57;;;4.03;;
5085;SDS011;4715;51.660;7.082;2024-01-15T12:33:43;5.87;;;4.43;;
5085;SDS011;4715;51.660;7.082;2024-01-15T12:36:07;5.10;;;4.53;;
5085;SDS011;4715;51.660;7.082;2024-01-15T12:38:29;5.83;;;4.50;;
5085;SDS011;4715;51.660;7.082;2024-01-15T12:40:52;7.93;;;4.60;;
5085;SDS011;4715;51.660;7.082;2024-01-15T12:43:16;7.03;;;4.53;;
5085;SDS011;4715;51.660;7.082;2024-01-15T12:45:38;4.30;;;3.97;;
5085;SDS011;4715;51.660;7.082;2024-01-15T12:48:01;6.03;;;4.20;;
5085;SDS011;4715;51.660;7.082;2024-01-15T12:50:24;3.63;;;3.43;;
5085;SDS011;4715;51.660;7.082;2024-01-15T12:52:46;7.10;;;4.07;;
5085;SDS011;4715;51.660;7.082;2024-01-15T12:55:09;7.13;;;3.97;;
5085;SDS011;4715;51.660;7.082;2024-01-15T12:57:31;11.43;;;3.30;;
5085;SDS011;4715;51.660;7.082;2024-01-15T12:59:55;7.30;;;2.90;;
5085;SDS011;4715;51.660;7.082;2024-01-15T13:02:17;3.10;;;2.80;;
5085;SDS011;4715;51.660;7.082;2024-01-15T13:04:39;2.80;;;2.30;;
5085;SDS011;4715;51.660;7.082;2024-01-15T13:07:01;3.50;;;2.27;;
5085;SDS011;4715;51.660;7.082;2024-01-15T13:09:22;3.40;;;3.20;;
5085;SDS011;4715;51.660;7.082;2024-01-15T13:11:44;2.27;;;2.17;;
5085;SDS011;4715;51.660;7.082;2024-01-15T13:14:09;3.63;;;1.93;;
5085;SDS011;4715;51.660;7.082;2024-01-15T13:16:32;3.33;;;1.77;;
5085;SDS011;4715;51.660;7.082;2024-01-15T13:18:54;2.23;;;1.80;;
5085;SDS011;4715;51.660;7.082;2024-01-15T13:21:19;6.53;;;2.30;;
5085;SDS011;4715;51.660;7.082;2024-01-15T13:23:40;3.10;;;2.10;;
5085;SDS011;4715;51.660;7.082;2024-01-15T13:26:03;2.90;;;1.80;;
5085;SDS011;4715;51.660;7.082;2024-01-15T13:28:25;5.00;;;2.23;;
5085;SDS011;4715;51.660;7.082;2024-01-15T13:30:47;6.20;;;2.60;;
5085;SDS011;4715;51.660;7.082;2024-01-15T13:33:11;5.63;;;2.17;;
5085;SDS011;4715;51.660;7.082;2024-01-15T13:35:33;2.50;;;2.10;;
5085;SDS011;4715;51.660;7.082;2024-01-15T13:37:57;2.23;;;1.90;;
5085;SDS011;4715;51.660;7.082;2024-01-15T13:40:21;2.30;;;2.10;;
5085;SDS011;4715;51.660;7.082;2024-01-15T13:42:43;6.30;;;2.00;;
5085;SDS011;4715;51.660;7.082;2024-01-15T13:45:06;2.80;;;1.70;;
5085;SDS011;4715;51.660;7.082;2024-01-15T13:47:28;8.47;;;2.70;;
5085;SDS011;4715;51.660;7.082;2024-01-15T13:49:52;2.30;;;1.77;;
5085;SDS011;4715;51.660;7.082;2024-01-15T13:52:13;2.30;;;1.80;;
5085;SDS011;4715;51.660;7.082;2024-01-15T13:54:35;3.67;;;2.00;;
5085;SDS011;4715;51.660;7.082;2024-01-15T13:56:58;5.57;;;2.83;;
5085;SDS011;4715;51.660;7.082;2024-01-15T13:59:27;4.37;;;2.20;;
5085;SDS011;4715;51.660;7.082;2024-01-15T14:01:49;2.90;;;2.00;;
5085;SDS011;4715;51.660;7.082;2024-01-15T14:04:11;16.47;;;2.13;;
5085;SDS011;4715;51.660;7.082;2024-01-15T14:06:38;4.00;;;1.70;;
5085;SDS011;4715;51.660;7.082;2024-01-15T14:09:00;2.33;;;1.50;;
5085;SDS011;4715;51.660;7.082;2024-01-15T14:11:24;4.20;;;1.90;;
5085;SDS011;4715;51.660;7.082;2024-01-15T14:13:46;10.03;;;2.23;;
5085;SDS011;4715;51.660;7.082;2024-01-15T14:16:08;4.70;;;1.70;;
5085;SDS011;4715;51.660;7.082;2024-01-15T14:18:31;3.23;;;1.43;;
5085;SDS011;4715;51.660;7.082;2024-01-15T14:20:55;2.37;;;2.00;;
5085;SDS011;4715;51.660;7.082;2024-01-15T14:23:18;10.07;;;2.10;;
5085;SDS011;4715;51.660;7.082;2024-01-15T14:25:40;5.17;;;2.07;;
5085;SDS011;4715;51.660;7.082;2024-01-15T14:28:02;3.67;;;1.70;;
5085;SDS011;4715;51.660;7.082;2024-01-15T14:30:28;1.93;;;1.73;;
5085;SDS011;4715;51.660;7.082;2024-01-15T14:32:49;1.40;;;1.30;;
5085;SDS011;4715;51.660;7.082;2024-01-15T14:35:11;1.43;;;1.33;;
5085;SDS011;4715;51.660;7.082;2024-01-15T14:37:33;3.90;;;1.67;;
5085;SDS011;4715;51.660;7.082;2024-01-15T14:39:57;1.50;;;1.40;;
5085;SDS011;4715;51.660;7.082;2024-01-15T14:42:20;1.67;;;1.57;;